sensor_id;sensor_type;location;lat;lon;timestamp;temperature;humidity
31661;DHT22;18267;52.234;7.444;2023-03-01T00:01:53;2.00;99.90
31661;DHT22;18267;52.234;7.444;2023-03-01T00:04:18;1.90;99.90
31661;DHT22;18267;52.234;7.444;2023-03-01T00:06:44;1.90;99.90
31661;DHT22;18267;52.234;7.444;2023-03-01T00:09:13;2.00;99.90
31661;DHT22;18267;52.234;7.444;2023-03-01T00:11:39;2.00;99.90
31661;DHT22;18267;52.234;7.444;2023-03-01T00:14:05;2.00;99.90
31661;DHT22;18267;52.234;7.444;2023-03-01T00:16:35;2.00;99.90
31661;DHT22;18267;52.234;7.444;2023-03-01T00:19:01;2.00;99.90
31661;DHT22;18267;52.234;7.444;2023-03-01T00:21:28;2.00;99.90
31661;DHT22;18267;52.234;7.444;2023-03-01T00:23:55;1.90;99.90
31661;DHT22;18267;52.234;7.444;2023-03-01T00:26:22;1.80;99.90
31661;DHT22;18267;52.234;7.444;2023-03-01T00:28:48;1.70;99.90
31661;DHT22;18267;52.234;7.444;2023-03-01T00:31:16;1.80;99.90
31661;DHT22;18267;52.234;7.444;2023-03-01T00:33:43;1.80;99.90
31661;DHT22;18267;52.234;7.444;2023-03-01T00:36:09;1.80;99.90
31661;DHT22;18267;52.234;7.444;2023-03-01T00:38:40;1.90;99.90
31661;DHT22;18267;52.234;7.444;2023-03-01T00:41:11;1.90;99.90
31661;DHT22;18267;52.234;7.444;2023-03-01T00:43:38;1.80;99.90
31661;DHT22;18267;52.234;7.444;2023-03-01T00:46:10;1.60;99.90
31661;DHT22;18267;52.234;7.444;2023-03-01T00:48:36;1.60;99.90
31661;DHT22;18267;52.234;7.444;2023-03-01T00:51:16;1.60;99.90
31661;DHT22;18267;52.234;7.444;2023-03-01T00:53:43;1.60;99.90
31661;DHT22;18267;52.234;7.444;2023-03-01T00:56:11;1.50;99.90
31661;DHT22;18267;52.234;7.444;2023-03-01T00:58:37;1.50;99.90
31661;DHT22;18267;52.234;7.444;2023-03-01T01:01:18;1.40;99.90
31661;DHT22;18267;52.234;7.444;2023-03-01T01:03:47;1.40;99.90
31661;DHT22;18267;52.234;7.444;2023-03-01T01:06:22;1.40;99.90
31661;DHT22;18267;52.234;7.444;2023-03-01T01:08:49;1.50;99.90
31661;DHT22;18267;52.234;7.444;2023-03-01T01:11:15;1.50;99.90
31661;DHT22;18267;52.234;7.444;2023-03-01T01:13:41;1.40;99.90
31661;DHT22;18267;52.234;7.444;2023-03-01T01:16:07;1.50;99.90
31661;DHT22;18267;52.234;7.444;2023-03-01T01:18:33;1.50;99.90
31661;DHT22;18267;52.234;7.444;2023-03-01T01:21:10;1.60;99.90
31661;DHT22;18267;52.234;7.444;2023-03-01T01:23:37;1.60;99.90
31661;DHT22;18267;52.234;7.444;2023-03-01T01:26:07;1.60;99.90
31661;DHT22;18267;52.234;7.444;2023-03-01T01:28:34;1.70;99.90
31661;DHT22;18267;52.234;7.444;2023-03-01T01:30:59;1.60;99.90
31661;DHT22;18267;52.234;7.444;2023-03-01T01:33:25;1.50;99.90
31661;DHT22;18267;52.234;7.444;2023-03-01T01:35:51;1.40;99.90
31661;DHT22;18267;52.234;7.444;2023-03-01T01:38:17;1.30;99.90
31661;DHT22;18267;52.234;7.444;2023-03-01T01:40:45;1.40;99.90
31661;DHT22;18267;52.234;7.444;2023-03-01T01:43:29;1.40;99.90
31661;DHT22;18267;52.234;7.444;2023-03-01T01:45:59;1.50;99.90
31661;DHT22;18267;52.234;7.444;2023-03-01T01:48:37;1.50;99.90
31661;DHT22;18267;52.234;7.444;2023-03-01T01:51:08;1.50;99.90
31661;DHT22;18267;52.234;7.444;2023-03-01T01:53:35;1.40;99.90
31661;DHT22;18267;52.234;7.444;2023-03-01T01:56:02;1.40;99.90
31661;DHT22;18267;52.234;7.444;2023-03-01T01:58:29;1.50;99.90
31661;DHT22;18267;52.234;7.444;2023-03-01T02:00:55;1.50;99.90
31661;DHT22;18267;52.234;7.444;2023-03-01T02:03:31;1.40;99.90
31661;DHT22;18267;52.234;7.444;2023-03-01T02:08:31;1.40;99.90
31661;DHT22;18267;52.234;7.444;2023-03-01T02:10:59;1.30;99.90
31661;DHT22;18267;52.234;7.444;2023-03-01T02:13:26;1.40;99.90
31661;DHT22;18267;52.234;7.444;2023-03-01T02:15:52;1.40;99.90
31661;DHT22;18267;52.234;7.444;2023-03-01T02:18:20;1.40;99.90
31661;DHT22;18267;52.234;7.444;2023-03-01T02:21:25;1.40;99.90
31661;DHT22;18267;52.234;7.444;2023-03-01T02:23:54;1.40;99.90
31661;DHT22;18267;52.234;7.444;2023-03-01T02:26:29;1.20;99.90
31661;DHT22;18267;52.234;7.444;2023-03-01T02:28:58;1.30;99.90
31661;DHT22;18267;52.234;7.444;2023-03-01T02:31:24;1.10;99.90
31661;DHT22;18267;52.234;7.444;2023-03-01T02:34:17;1.00;99.90
31661;DHT22;18267;52.234;7.444;2023-03-01T02:36:55;1.00;99.90
31661;DHT22;18267;52.234;7.444;2023-03-01T02:39:25;1.10;99.90
31661;DHT22;18267;52.234;7.444;2023-03-01T02:41:53;1.00;99.90
31661;DHT22;18267;52.234;7.444;2023-03-01T02:44:20;1.10;99.90
31661;DHT22;18267;52.234;7.444;2023-03-01T02:46:53;1.10;99.90
31661;DHT22;18267;52.234;7.444;2023-03-01T02:49:29;1.10;99.90
31661;DHT22;18267;52.234;7.444;2023-03-01T02:52:12;1.20;99.90
31661;DHT22;18267;52.234;7.444;2023-03-01T02:55:03;1.30;99.90
31661;DHT22;18267;52.234;7.444;2023-03-01T02:57:31;1.30;99.90
31661;DHT22;18267;52.234;7.444;2023-03-01T03:00:02;1.20;99.90
31661;DHT22;18267;52.234;7.444;2023-03-01T03:02:32;1.20;99.90
31661;DHT22;18267;52.234;7.444;2023-03-01T03:05:09;1.20;99.90
31661;DHT22;18267;52.234;7.444;2023-03-01T03:07:37;1.30;99.90
31661;DHT22;18267;52.234;7.444;2023-03-01T03:10:05;1.20;99.90
31661;DHT22;18267;52.234;7.444;2023-03-01T03:12:31;1.20;99.90
31661;DHT22;18267;52.234;7.444;2023-03-01T03:14:57;1.10;99.90
31661;DHT22;18267;52.234;7.444;2023-03-01T03:17:22;1.10;99.90
31661;DHT22;18267;52.234;7.444;2023-03-01T03:19:48;1.10;99.90
31661;DHT22;18267;52.234;7.444;2023-03-01T03:22:14;1.10;99.90
31661;DHT22;18267;52.234;7.444;2023-03-01T03:24:39;1.10;99.90
31661;DHT22;18267;52.234;7.444;2023-03-01T03:27:05;1.10;99.90
31661;DHT22;18267;52.234;7.444;2023-03-01T03:29:32;1.10;99.90
31661;DHT22;18267;52.234;7.444;2023-03-01T03:31:57;1.10;99.90
31661;DHT22;18267;52.234;7.444;2023-03-01T03:34:23;1.10;99.90
31661;DHT22;18267;52.234;7.444;2023-03-01T03:36:55;1.20;99.90
31661;DHT22;18267;52.234;7.444;2023-03-01T03:39:25;1.20;99.90
31661;DHT22;18267;52.234;7.444;2023-03-01T03:41:52;1.20;99.90
31661;DHT22;18267;52.234;7.444;2023-03-01T03:44:18;1.20;99.90
31661;DHT22;18267;52.234;7.444;2023-03-01T03:46:43;1.20;99.90
31661;DHT22;18267;52.234;7.444;2023-03-01T03:49:09;1.20;99.90
31661;DHT22;18267;52.234;7.444;2023-03-01T03:51:34;1.20;99.90
31661;DHT22;18267;52.234;7.444;2023-03-01T03:54:00;1.20;99.90
31661;DHT22;18267;52.234;7.444;2023-03-01T03:56:25;1.20;99.90
31661;DHT22;18267;52.234;7.444;2023-03-01T03:58:51;1.20;99.90
31661;DHT22;18267;52.234;7.444;2023-03-01T04:01:17;1.30;99.90
31661;DHT22;18267;52.234;7.444;2023-03-01T04:03:43;1.20;99.90
31661;DHT22;18267;52.234;7.444;2023-03-01T04:06:12;1.20;99.90
31661;DHT22;18267;52.234;7.444;2023-03-01T04:08:38;1.10;99.90
31661;DHT22;18267;52.234;7.444;2023-03-01T04:11:05;1.00;99.90
31661;DHT22;18267;52.234;7.444;2023-03-01T04:13:49;1.10;99.90
31661;DHT22;18267;52.234;7.444;2023-03-01T04:16:15;1.10;99.90
31661;DHT22;18267;52.234;7.444;2023-03-01T04:18:41;1.10;99.90
31661;DHT22;18267;52.234;7.444;2023-03-01T04:21:07;0.90;99.90
31661;DHT22;18267;52.234;7.444;2023-03-01T04:23:32;0.80;99.90
31661;DHT22;18267;52.234;7.444;2023-03-01T04:25:58;0.70;99.90
31661;DHT22;18267;52.234;7.444;2023-03-01T04:28:33;0.70;99.90
31661;DHT22;18267;52.234;7.444;2023-03-01T04:31:07;0.70;99.90
31661;DHT22;18267;52.234;7.444;2023-03-01T04:33:49;0.80;99.90
31661;DHT22;18267;52.234;7.444;2023-03-01T04:36:18;0.80;99.90
31661;DHT22;18267;52.234;7.444;2023-03-01T04:38:43;0.70;99.90
31661;DHT22;18267;52.234;7.444;2023-03-01T04:41:13;0.70;99.90
31661;DHT22;18267;52.234;7.444;2023-03-01T04:43:39;0.70;99.90
31661;DHT22;18267;52.234;7.444;2023-03-01T04:46:07;0.80;99.90
31661;DHT22;18267;52.234;7.444;2023-03-01T04:48:35;0.80;99.90
31661;DHT22;18267;52.234;7.444;2023-03-01T04:51:01;0.80;99.90
31661;DHT22;18267;52.234;7.444;2023-03-01T04:53:27;0.80;99.90
31661;DHT22;18267;52.234;7.444;2023-03-01T04:55:54;0.80;99.90
31661;DHT22;18267;52.234;7.444;2023-03-01T04:58:24;0.80;99.90
31661;DHT22;18267;52.234;7.444;2023-03-01T05:00:50;0.80;99.90
31661;DHT22;18267;52.234;7.444;2023-03-01T05:03:15;0.80;99.90
31661;DHT22;18267;52.234;7.444;2023-03-01T05:05:44;0.80;99.90
31661;DHT22;18267;52.234;7.444;2023-03-01T05:08:11;0.80;99.90
31661;DHT22;18267;52.234;7.444;2023-03-01T05:10:49;0.70;99.90
31661;DHT22;18267;52.234;7.444;2023-03-01T05:13:15;0.70;99.90
31661;DHT22;18267;52.234;7.444;2023-03-01T05:15:59;0.70;99.90
31661;DHT22;18267;52.234;7.444;2023-03-01T05:18:26;0.70;99.90
31661;DHT22;18267;52.234;7.444;2023-03-01T05:20:54;0.60;99.90
31661;DHT22;18267;52.234;7.444;2023-03-01T05:23:22;0.70;99.90
31661;DHT22;18267;52.234;7.444;2023-03-01T05:25:48;0.60;99.90
31661;DHT22;18267;52.234;7.444;2023-03-01T05:28:14;0.60;99.90
31661;DHT22;18267;52.234;7.444;2023-03-01T05:30:40;0.60;99.90
31661;DHT22;18267;52.234;7.444;2023-03-01T05:33:06;0.60;99.90
31661;DHT22;18267;52.234;7.444;2023-03-01T05:35:39;0.60;99.90
31661;DHT22;18267;52.234;7.444;2023-03-01T05:38:04;0.60;99.90
31661;DHT22;18267;52.234;7.444;2023-03-01T05:40:32;0.70;99.90
31661;DHT22;18267;52.234;7.444;2023-03-01T05:42:58;0.70;99.90
31661;DHT22;18267;52.234;7.444;2023-03-01T05:45:26;0.50;99.90
31661;DHT22;18267;52.234;7.444;2023-03-01T05:47:52;0.50;99.90
31661;DHT22;18267;52.234;7.444;2023-03-01T05:50:23;0.60;99.90
31661;DHT22;18267;52.234;7.444;2023-03-01T05:52:54;0.60;99.90
31661;DHT22;18267;52.234;7.444;2023-03-01T05:55:22;0.60;99.90
31661;DHT22;18267;52.234;7.444;2023-03-01T05:57:48;0.60;99.90
31661;DHT22;18267;52.234;7.444;2023-03-01T06:00:17;0.50;99.90
31661;DHT22;18267;52.234;7.444;2023-03-01T06:02:43;0.50;99.90
31661;DHT22;18267;52.234;7.444;2023-03-01T06:05:10;0.50;99.90
31661;DHT22;18267;52.234;7.444;2023-03-01T06:07:36;0.40;99.90
31661;DHT22;18267;52.234;7.444;2023-03-01T06:10:04;0.20;99.90
31661;DHT22;18267;52.234;7.444;2023-03-01T06:12:31;0.20;99.90
31661;DHT22;18267;52.234;7.444;2023-03-01T06:14:57;0.10;99.90
31661;DHT22;18267;52.234;7.444;2023-03-01T06:17:22;0.10;99.90
31661;DHT22;18267;52.234;7.444;2023-03-01T06:19:48;0.10;99.90
31661;DHT22;18267;52.234;7.444;2023-03-01T06:22:13;0.10;99.90
31661;DHT22;18267;52.234;7.444;2023-03-01T06:24:39;0.10;99.90
31661;DHT22;18267;52.234;7.444;2023-03-01T06:27:04;0.20;99.90
31661;DHT22;18267;52.234;7.444;2023-03-01T06:29:30;0.20;99.90
31661;DHT22;18267;52.234;7.444;2023-03-01T06:31:55;0.30;99.90
31661;DHT22;18267;52.234;7.444;2023-03-01T06:34:21;0.30;99.90
31661;DHT22;18267;52.234;7.444;2023-03-01T06:36:47;0.30;99.90
31661;DHT22;18267;52.234;7.444;2023-03-01T06:39:13;0.40;99.90
31661;DHT22;18267;52.234;7.444;2023-03-01T06:41:38;0.40;99.90
31661;DHT22;18267;52.234;7.444;2023-03-01T06:44:04;0.50;99.90
31661;DHT22;18267;52.234;7.444;2023-03-01T06:46:30;0.40;99.90
31661;DHT22;18267;52.234;7.444;2023-03-01T06:48:56;0.40;99.90
31661;DHT22;18267;52.234;7.444;2023-03-01T06:51:21;0.40;99.90
31661;DHT22;18267;52.234;7.444;2023-03-01T06:53:47;0.40;99.90
31661;DHT22;18267;52.234;7.444;2023-03-01T06:56:12;0.10;99.90
31661;DHT22;18267;52.234;7.444;2023-03-01T06:58:38;0.20;99.90
31661;DHT22;18267;52.234;7.444;2023-03-01T07:01:07;0.30;99.90
31661;DHT22;18267;52.234;7.444;2023-03-01T07:03:33;0.40;99.90
31661;DHT22;18267;52.234;7.444;2023-03-01T07:05:59;0.40;99.90
31661;DHT22;18267;52.234;7.444;2023-03-01T07:08:24;0.40;99.90
31661;DHT22;18267;52.234;7.444;2023-03-01T07:10:57;0.40;99.90
31661;DHT22;18267;52.234;7.444;2023-03-01T07:13:23;0.40;99.90
31661;DHT22;18267;52.234;7.444;2023-03-01T07:15:48;0.20;99.90
31661;DHT22;18267;52.234;7.444;2023-03-01T07:18:14;0.30;99.90
31661;DHT22;18267;52.234;7.444;2023-03-01T07:20:39;0.40;99.90
31661;DHT22;18267;52.234;7.444;2023-03-01T07:23:05;0.60;99.90
31661;DHT22;18267;52.234;7.444;2023-03-01T07:25:31;0.70;99.90
31661;DHT22;18267;52.234;7.444;2023-03-01T07:27:57;0.60;99.90
31661;DHT22;18267;52.234;7.444;2023-03-01T07:30:23;0.60;99.90
31661;DHT22;18267;52.234;7.444;2023-03-01T07:32:51;0.50;99.90
31661;DHT22;18267;52.234;7.444;2023-03-01T07:35:17;0.60;99.90
31661;DHT22;18267;52.234;7.444;2023-03-01T07:37:42;0.60;99.90
31661;DHT22;18267;52.234;7.444;2023-03-01T07:40:09;0.60;99.90
31661;DHT22;18267;52.234;7.444;2023-03-01T07:42:35;0.80;99.90
31661;DHT22;18267;52.234;7.444;2023-03-01T07:45:00;0.80;99.90
31661;DHT22;18267;52.234;7.444;2023-03-01T07:47:26;0.80;99.90
31661;DHT22;18267;52.234;7.444;2023-03-01T07:49:51;0.90;99.90
31661;DHT22;18267;52.234;7.444;2023-03-01T07:52:17;1.00;99.90
31661;DHT22;18267;52.234;7.444;2023-03-01T07:54:43;1.10;99.90
31661;DHT22;18267;52.234;7.444;2023-03-01T07:57:09;1.10;99.90
31661;DHT22;18267;52.234;7.444;2023-03-01T07:59:35;1.20;99.90
31661;DHT22;18267;52.234;7.444;2023-03-01T08:02:00;1.30;99.90
31661;DHT22;18267;52.234;7.444;2023-03-01T08:04:26;1.40;99.90
31661;DHT22;18267;52.234;7.444;2023-03-01T08:06:52;1.40;99.90
31661;DHT22;18267;52.234;7.444;2023-03-01T08:09:18;1.50;99.90
31661;DHT22;18267;52.234;7.444;2023-03-01T08:11:44;1.60;99.90
31661;DHT22;18267;52.234;7.444;2023-03-01T08:14:09;1.70;99.90
31661;DHT22;18267;52.234;7.444;2023-03-01T08:16:36;1.80;99.90
31661;DHT22;18267;52.234;7.444;2023-03-01T08:19:06;1.80;99.90
31661;DHT22;18267;52.234;7.444;2023-03-01T08:21:32;1.90;99.90
31661;DHT22;18267;52.234;7.444;2023-03-01T08:24:00;2.00;99.90
31661;DHT22;18267;52.234;7.444;2023-03-01T08:26:26;2.00;99.90
31661;DHT22;18267;52.234;7.444;2023-03-01T08:28:51;2.10;99.90
31661;DHT22;18267;52.234;7.444;2023-03-01T08:31:20;2.20;99.90
31661;DHT22;18267;52.234;7.444;2023-03-01T08:33:48;2.30;99.90
31661;DHT22;18267;52.234;7.444;2023-03-01T08:36:16;2.40;99.90
31661;DHT22;18267;52.234;7.444;2023-03-01T08:38:42;2.40;99.90
31661;DHT22;18267;52.234;7.444;2023-03-01T08:41:07;2.40;99.90
31661;DHT22;18267;52.234;7.444;2023-03-01T08:43:33;2.40;99.90
31661;DHT22;18267;52.234;7.444;2023-03-01T08:45:58;2.50;99.90
31661;DHT22;18267;52.234;7.444;2023-03-01T08:48:24;2.60;99.90
31661;DHT22;18267;52.234;7.444;2023-03-01T08:50:50;2.70;99.90
31661;DHT22;18267;52.234;7.444;2023-03-01T08:53:16;2.80;99.90
31661;DHT22;18267;52.234;7.444;2023-03-01T08:55:41;2.90;99.90
31661;DHT22;18267;52.234;7.444;2023-03-01T08:58:07;2.90;99.90
31661;DHT22;18267;52.234;7.444;2023-03-01T09:00:32;2.90;99.90
31661;DHT22;18267;52.234;7.444;2023-03-01T09:03:00;3.00;99.90
31661;DHT22;18267;52.234;7.444;2023-03-01T09:05:26;3.00;99.90
31661;DHT22;18267;52.234;7.444;2023-03-01T09:07:51;3.10;99.90
31661;DHT22;18267;52.234;7.444;2023-03-01T09:10:17;3.10;99.90
31661;DHT22;18267;52.234;7.444;2023-03-01T09:12:43;3.10;99.90
31661;DHT22;18267;52.234;7.444;2023-03-01T09:15:09;3.20;99.90
31661;DHT22;18267;52.234;7.444;2023-03-01T09:17:35;3.30;99.90
31661;DHT22;18267;52.234;7.444;2023-03-01T09:20:00;3.40;99.90
31661;DHT22;18267;52.234;7.444;2023-03-01T09:22:26;3.50;99.90
31661;DHT22;18267;52.234;7.444;2023-03-01T09:24:51;3.40;99.90
31661;DHT22;18267;52.234;7.444;2023-03-01T09:27:17;3.50;99.90
31661;DHT22;18267;52.234;7.444;2023-03-01T09:29:44;3.50;99.90
31661;DHT22;18267;52.234;7.444;2023-03-01T09:32:10;3.60;99.90
31661;DHT22;18267;52.234;7.444;2023-03-01T09:34:36;3.50;99.90
31661;DHT22;18267;52.234;7.444;2023-03-01T09:37:21;3.60;99.90
31661;DHT22;18267;52.234;7.444;2023-03-01T09:39:47;3.80;99.90
31661;DHT22;18267;52.234;7.444;2023-03-01T09:42:13;3.90;99.90
31661;DHT22;18267;52.234;7.444;2023-03-01T09:47:29;4.00;99.90
31661;DHT22;18267;52.234;7.444;2023-03-01T09:50:03;4.00;99.90
31661;DHT22;18267;52.234;7.444;2023-03-01T09:54:58;4.00;99.90
31661;DHT22;18267;52.234;7.444;2023-03-01T10:02:46;4.30;99.90
31661;DHT22;18267;52.234;7.444;2023-03-01T10:05:29;4.20;99.90
31661;DHT22;18267;52.234;7.444;2023-03-01T10:10:46;4.30;99.90
31661;DHT22;18267;52.234;7.444;2023-03-01T10:16:56;4.20;99.90
31661;DHT22;18267;52.234;7.444;2023-03-01T10:19:32;4.20;99.90
31661;DHT22;18267;52.234;7.444;2023-03-01T10:22:24;4.20;99.80
31661;DHT22;18267;52.234;7.444;2023-03-01T10:24:54;4.30;99.80
31661;DHT22;18267;52.234;7.444;2023-03-01T10:27:23;4.30;99.90
31661;DHT22;18267;52.234;7.444;2023-03-01T10:29:53;4.30;99.80
31661;DHT22;18267;52.234;7.444;2023-03-01T10:32:20;4.30;99.90
31661;DHT22;18267;52.234;7.444;2023-03-01T10:34:47;4.40;99.90
31661;DHT22;18267;52.234;7.444;2023-03-01T10:37:14;4.40;99.80
31661;DHT22;18267;52.234;7.444;2023-03-01T10:40:04;4.50;99.90
31661;DHT22;18267;52.234;7.444;2023-03-01T10:42:40;4.50;99.50
31661;DHT22;18267;52.234;7.444;2023-03-01T10:48:31;4.50;99.70
31661;DHT22;18267;52.234;7.444;2023-03-01T10:53:41;4.70;99.70
31661;DHT22;18267;52.234;7.444;2023-03-01T10:56:10;4.80;98.90
31661;DHT22;18267;52.234;7.444;2023-03-01T10:59:03;4.90;99.20
31661;DHT22;18267;52.234;7.444;2023-03-01T11:01:31;5.00;98.80
31661;DHT22;18267;52.234;7.444;2023-03-01T11:06:36;5.00;98.30
31661;DHT22;18267;52.234;7.444;2023-03-01T11:09:18;4.90;98.20
31661;DHT22;18267;52.234;7.444;2023-03-01T11:11:44;5.00;97.90
31661;DHT22;18267;52.234;7.444;2023-03-01T11:14:36;5.10;98.00
31661;DHT22;18267;52.234;7.444;2023-03-01T11:19:39;5.20;98.00
31661;DHT22;18267;52.234;7.444;2023-03-01T11:22:12;5.10;98.70
31661;DHT22;18267;52.234;7.444;2023-03-01T11:24:42;5.20;99.20
31661;DHT22;18267;52.234;7.444;2023-03-01T11:27:20;5.10;99.20
31661;DHT22;18267;52.234;7.444;2023-03-01T11:30:03;5.10;99.40
31661;DHT22;18267;52.234;7.444;2023-03-01T11:32:38;5.20;99.70
31661;DHT22;18267;52.234;7.444;2023-03-01T11:35:15;5.10;99.50
31661;DHT22;18267;52.234;7.444;2023-03-01T11:38:09;5.20;99.60
31661;DHT22;18267;52.234;7.444;2023-03-01T11:57:16;5.70;96.40
31661;DHT22;18267;52.234;7.444;2023-03-01T12:05:38;5.70;94.80
31661;DHT22;18267;52.234;7.444;2023-03-01T12:08:28;5.60;94.60
31661;DHT22;18267;52.234;7.444;2023-03-01T12:11:09;5.70;94.40
31661;DHT22;18267;52.234;7.444;2023-03-01T12:14:00;5.70;94.10
31661;DHT22;18267;52.234;7.444;2023-03-01T12:16:40;5.60;93.70
31661;DHT22;18267;52.234;7.444;2023-03-01T12:19:22;5.70;94.40
31661;DHT22;18267;52.234;7.444;2023-03-01T12:27:43;5.80;94.20
31661;DHT22;18267;52.234;7.444;2023-03-01T12:33:51;5.80;94.30
31661;DHT22;18267;52.234;7.444;2023-03-01T12:42:11;5.90;93.20
31661;DHT22;18267;52.234;7.444;2023-03-01T12:50:49;5.90;94.50
31661;DHT22;18267;52.234;7.444;2023-03-01T12:53:26;5.90;95.10
31661;DHT22;18267;52.234;7.444;2023-03-01T12:55:54;6.00;95.20
31661;DHT22;18267;52.234;7.444;2023-03-01T12:58:29;6.10;95.40
31661;DHT22;18267;52.234;7.444;2023-03-01T13:01:02;6.10;95.60
31661;DHT22;18267;52.234;7.444;2023-03-01T13:06:39;6.10;94.90
31661;DHT22;18267;52.234;7.444;2023-03-01T13:12:43;6.00;94.90
31661;DHT22;18267;52.234;7.444;2023-03-01T13:17:49;6.10;95.20
31661;DHT22;18267;52.234;7.444;2023-03-01T13:20:20;6.20;95.40
31661;DHT22;18267;52.234;7.444;2023-03-01T13:22:46;6.20;95.80
31661;DHT22;18267;52.234;7.444;2023-03-01T13:25:18;6.20;95.50
31661;DHT22;18267;52.234;7.444;2023-03-01T13:27:45;6.20;95.40
31661;DHT22;18267;52.234;7.444;2023-03-01T13:33:38;6.20;95.70
31661;DHT22;18267;52.234;7.444;2023-03-01T13:36:05;6.20;95.80
31661;DHT22;18267;52.234;7.444;2023-03-01T13:38:56;6.20;95.80
31661;DHT22;18267;52.234;7.444;2023-03-01T13:44:32;6.30;95.60
31661;DHT22;18267;52.234;7.444;2023-03-01T13:47:13;6.30;95.80
31661;DHT22;18267;52.234;7.444;2023-03-01T13:49:53;6.30;95.90
31661;DHT22;18267;52.234;7.444;2023-03-01T13:57:39;6.50;95.20
31661;DHT22;18267;52.234;7.444;2023-03-01T14:00:06;6.40;95.00
31661;DHT22;18267;52.234;7.444;2023-03-01T14:02:31;6.40;95.10
31661;DHT22;18267;52.234;7.444;2023-03-01T14:04:59;6.40;95.30
31661;DHT22;18267;52.234;7.444;2023-03-01T14:07:25;6.50;95.60
31661;DHT22;18267;52.234;7.444;2023-03-01T14:09:58;6.50;95.50
31661;DHT22;18267;52.234;7.444;2023-03-01T14:15:29;6.50;94.50
31661;DHT22;18267;52.234;7.444;2023-03-01T14:20:24;6.40;94.80
31661;DHT22;18267;52.234;7.444;2023-03-01T14:23:00;6.40;94.90
31661;DHT22;18267;52.234;7.444;2023-03-01T14:25:37;6.40;95.50
31661;DHT22;18267;52.234;7.444;2023-03-01T14:28:23;6.40;95.60
31661;DHT22;18267;52.234;7.444;2023-03-01T14:30:53;6.50;95.30
31661;DHT22;18267;52.234;7.444;2023-03-01T14:33:21;6.50;95.60
31661;DHT22;18267;52.234;7.444;2023-03-01T14:35:57;6.50;95.10
31661;DHT22;18267;52.234;7.444;2023-03-01T14:38:31;6.50;95.00
31661;DHT22;18267;52.234;7.444;2023-03-01T14:41:03;6.40;95.20
31661;DHT22;18267;52.234;7.444;2023-03-01T14:43:29;6.50;95.40
31661;DHT22;18267;52.234;7.444;2023-03-01T14:45:56;6.40;95.80
31661;DHT22;18267;52.234;7.444;2023-03-01T14:48:22;6.50;95.90
31661;DHT22;18267;52.234;7.444;2023-03-01T14:50:48;6.50;96.00
31661;DHT22;18267;52.234;7.444;2023-03-01T14:53:18;6.60;95.40
31661;DHT22;18267;52.234;7.444;2023-03-01T14:55:47;6.50;94.90
31661;DHT22;18267;52.234;7.444;2023-03-01T14:58:17;6.50;94.50
31661;DHT22;18267;52.234;7.444;2023-03-01T15:00:53;6.50;94.30
31661;DHT22;18267;52.234;7.444;2023-03-01T15:03:41;6.50;94.90
31661;DHT22;18267;52.234;7.444;2023-03-01T15:06:09;6.60;95.40
31661;DHT22;18267;52.234;7.444;2023-03-01T15:08:41;6.50;95.20
31661;DHT22;18267;52.234;7.444;2023-03-01T15:13:40;6.50;95.50
31661;DHT22;18267;52.234;7.444;2023-03-01T15:16:10;6.60;95.00
31661;DHT22;18267;52.234;7.444;2023-03-01T15:18:37;6.50;94.90
31661;DHT22;18267;52.234;7.444;2023-03-01T15:21:22;6.60;95.10
31661;DHT22;18267;52.234;7.444;2023-03-01T15:23:50;6.60;94.80
31661;DHT22;18267;52.234;7.444;2023-03-01T15:26:33;6.50;94.90
31661;DHT22;18267;52.234;7.444;2023-03-01T15:29:02;6.50;95.30
31661;DHT22;18267;52.234;7.444;2023-03-01T15:31:35;6.50;95.10
31661;DHT22;18267;52.234;7.444;2023-03-01T15:34:23;6.50;95.50
31661;DHT22;18267;52.234;7.444;2023-03-01T15:36:50;6.50;94.80
31661;DHT22;18267;52.234;7.444;2023-03-01T15:41:58;6.60;94.50
31661;DHT22;18267;52.234;7.444;2023-03-01T15:44:30;6.60;94.50
31661;DHT22;18267;52.234;7.444;2023-03-01T15:46:56;6.50;94.50
31661;DHT22;18267;52.234;7.444;2023-03-01T15:49:38;6.50;94.80
31661;DHT22;18267;52.234;7.444;2023-03-01T15:52:09;6.50;94.80
31661;DHT22;18267;52.234;7.444;2023-03-01T15:54:39;6.50;95.20
31661;DHT22;18267;52.234;7.444;2023-03-01T15:57:11;6.50;95.30
31661;DHT22;18267;52.234;7.444;2023-03-01T15:59:37;6.50;95.50
31661;DHT22;18267;52.234;7.444;2023-03-01T16:02:09;6.50;95.50
31661;DHT22;18267;52.234;7.444;2023-03-01T16:04:34;6.50;95.90
31661;DHT22;18267;52.234;7.444;2023-03-01T16:07:00;6.50;95.80
31661;DHT22;18267;52.234;7.444;2023-03-01T16:09:26;6.50;96.00
31661;DHT22;18267;52.234;7.444;2023-03-01T16:11:53;6.50;96.00
31661;DHT22;18267;52.234;7.444;2023-03-01T16:14:19;6.40;96.40
31661;DHT22;18267;52.234;7.444;2023-03-01T16:16:45;6.40;96.60
31661;DHT22;18267;52.234;7.444;2023-03-01T16:19:11;6.40;96.50
31661;DHT22;18267;52.234;7.444;2023-03-01T16:21:37;6.40;96.50
31661;DHT22;18267;52.234;7.444;2023-03-01T16:24:03;6.40;96.80
31661;DHT22;18267;52.234;7.444;2023-03-01T16:26:29;6.20;96.90
31661;DHT22;18267;52.234;7.444;2023-03-01T16:28:56;6.20;97.10
31661;DHT22;18267;52.234;7.444;2023-03-01T16:31:22;6.20;97.20
31661;DHT22;18267;52.234;7.444;2023-03-01T16:33:48;6.20;97.30
31661;DHT22;18267;52.234;7.444;2023-03-01T16:36:23;6.20;97.10
31661;DHT22;18267;52.234;7.444;2023-03-01T16:38:50;6.10;97.20
31661;DHT22;18267;52.234;7.444;2023-03-01T16:41:18;6.10;97.20
31661;DHT22;18267;52.234;7.444;2023-03-01T16:43:44;6.00;97.10
31661;DHT22;18267;52.234;7.444;2023-03-01T16:46:23;6.00;97.30
31661;DHT22;18267;52.234;7.444;2023-03-01T16:48:50;6.00;97.40
31661;DHT22;18267;52.234;7.444;2023-03-01T16:51:16;6.00;97.40
31661;DHT22;18267;52.234;7.444;2023-03-01T16:53:42;6.00;97.60
31661;DHT22;18267;52.234;7.444;2023-03-01T16:56:10;5.90;97.50
31661;DHT22;18267;52.234;7.444;2023-03-01T16:58:38;5.90;97.80
31661;DHT22;18267;52.234;7.444;2023-03-01T17:01:13;5.80;98.00
31661;DHT22;18267;52.234;7.444;2023-03-01T17:03:39;5.80;98.10
31661;DHT22;18267;52.234;7.444;2023-03-01T17:06:07;5.70;98.10
31661;DHT22;18267;52.234;7.444;2023-03-01T17:08:33;5.70;98.20
31661;DHT22;18267;52.234;7.444;2023-03-01T17:11:14;5.70;98.40
31661;DHT22;18267;52.234;7.444;2023-03-01T17:13:41;5.70;98.40
31661;DHT22;18267;52.234;7.444;2023-03-01T17:16:09;5.60;98.60
31661;DHT22;18267;52.234;7.444;2023-03-01T17:18:36;5.60;98.70
31661;DHT22;18267;52.234;7.444;2023-03-01T17:21:02;5.50;98.70
31661;DHT22;18267;52.234;7.444;2023-03-01T17:23:30;5.40;98.90
31661;DHT22;18267;52.234;7.444;2023-03-01T17:25:56;5.40;99.00
31661;DHT22;18267;52.234;7.444;2023-03-01T17:28:24;5.40;99.10
31661;DHT22;18267;52.234;7.444;2023-03-01T17:30:50;5.30;99.30
31661;DHT22;18267;52.234;7.444;2023-03-01T17:33:17;5.30;99.40
31661;DHT22;18267;52.234;7.444;2023-03-01T17:35:42;5.30;99.40
31661;DHT22;18267;52.234;7.444;2023-03-01T17:38:11;5.30;99.50
31661;DHT22;18267;52.234;7.444;2023-03-01T17:40:37;5.30;99.50
31661;DHT22;18267;52.234;7.444;2023-03-01T17:43:04;5.30;99.80
31661;DHT22;18267;52.234;7.444;2023-03-01T17:45:29;5.20;99.50